sensor_id;sensor_type;location;lat;lon;timestamp;noise_LAeq;noise_LA_min;noise_LA_max;noise_LA01;noise_LA95
45478;Laerm;31227;47.986;11.868;2023-05-29T00:00:07;38.05;35.04;40.80;;
45478;Laerm;31227;47.986;11.868;2023-05-29T00:05:17;38.06;34.69;40.53;;
45478;Laerm;31227;47.986;11.868;2023-05-29T00:07:45;38.02;35.04;40.62;;
45478;Laerm;31227;47.986;11.868;2023-05-29T00:10:21;38.04;34.31;40.33;;
45478;Laerm;31227;47.986;11.868;2023-05-29T00:12:50;38.04;35.04;40.71;;
45478;Laerm;31227;47.986;11.868;2023-05-29T00:27:55;38.03;34.31;40.71;;
45478;Laerm;31227;47.986;11.868;2023-05-29T00:30:46;38.06;34.31;40.62;;
45478;Laerm;31227;47.986;11.868;2023-05-29T00:33:42;38.04;34.69;40.62;;
45478;Laerm;31227;47.986;11.868;2023-05-29T00:45:59;38.06;34.69;40.43;;
45478;Laerm;31227;47.986;11.868;2023-05-29T00:48:43;38.04;34.31;40.33;;
45478;Laerm;31227;47.986;11.868;2023-05-29T00:54:03;38.06;35.04;40.33;;
45478;Laerm;31227;47.986;11.868;2023-05-29T00:56:38;38.05;35.04;40.33;;
45478;Laerm;31227;47.986;11.868;2023-05-29T00:59:04;38.07;34.69;40.80;;
45478;Laerm;31227;47.986;11.868;2023-05-29T01:01:30;38.05;34.69;40.63;;
45478;Laerm;31227;47.986;11.868;2023-05-29T01:04:16;38.06;35.36;40.98;;
45478;Laerm;31227;47.986;11.868;2023-05-29T01:06:54;38.06;33.90;40.43;;
45478;Laerm;31227;47.986;11.868;2023-05-29T01:09:26;38.05;34.69;40.53;;
45478;Laerm;31227;47.986;11.868;2023-05-29T01:28:41;38.03;35.04;40.33;;
45478;Laerm;31227;47.986;11.868;2023-05-29T01:31:12;38.03;34.31;40.43;;
45478;Laerm;31227;47.986;11.868;2023-05-29T01:33:51;38.04;35.04;40.71;;
45478;Laerm;31227;47.986;11.868;2023-05-29T01:36:43;38.02;34.31;40.23;;
45478;Laerm;31227;47.986;11.868;2023-05-29T01:41:44;38.05;35.04;40.53;;
45478;Laerm;31227;47.986;11.868;2023-05-29T01:44:34;38.01;35.04;40.43;;
45478;Laerm;31227;47.986;11.868;2023-05-29T01:47:04;38.02;35.04;40.62;;
45478;Laerm;31227;47.986;11.868;2023-05-29T01:49:29;38.03;34.69;41.14;;
45478;Laerm;31227;47.986;11.868;2023-05-29T01:51:59;37.98;35.04;40.33;;
45478;Laerm;31227;47.986;11.868;2023-05-29T01:54:24;37.99;35.04;40.36;;
45478;Laerm;31227;47.986;11.868;2023-05-29T01:56:49;38.02;35.04;41.22;;
45478;Laerm;31227;47.986;11.868;2023-05-29T01:59:16;37.96;33.90;40.53;;
45478;Laerm;31227;47.986;11.868;2023-05-29T02:01:41;38.01;34.69;40.62;;
45478;Laerm;31227;47.986;11.868;2023-05-29T02:04:10;37.98;34.69;40.43;;
45478;Laerm;31227;47.986;11.868;2023-05-29T02:06:35;37.98;34.31;40.33;;
45478;Laerm;31227;47.986;11.868;2023-05-29T02:09:01;37.96;34.69;40.53;;
45478;Laerm;31227;47.986;11.868;2023-05-29T02:11:26;37.97;35.01;40.89;;
45478;Laerm;31227;47.986;11.868;2023-05-29T02:13:52;38.00;33.90;40.53;;
45478;Laerm;31227;47.986;11.868;2023-05-29T02:16:17;37.97;34.69;40.62;;
45478;Laerm;31227;47.986;11.868;2023-05-29T02:18:45;37.97;35.04;40.23;;
45478;Laerm;31227;47.986;11.868;2023-05-29T02:21:10;37.98;34.69;40.23;;
45478;Laerm;31227;47.986;11.868;2023-05-29T02:23:36;37.97;35.01;40.23;;
45478;Laerm;31227;47.986;11.868;2023-05-29T02:26:01;37.97;34.31;40.13;;
45478;Laerm;31227;47.986;11.868;2023-05-29T02:28:26;48.45;33.90;84.19;;
45478;Laerm;31227;47.986;11.868;2023-05-29T02:30:52;37.96;34.69;40.33;;
45478;Laerm;31227;47.986;11.868;2023-05-29T02:33:17;37.97;34.69;40.53;;
45478;Laerm;31227;47.986;11.868;2023-05-29T02:35:42;37.95;34.31;40.43;;
45478;Laerm;31227;47.986;11.868;2023-05-29T02:38:07;37.97;35.04;40.43;;
45478;Laerm;31227;47.986;11.868;2023-05-29T02:40:32;37.95;34.69;40.33;;
45478;Laerm;31227;47.986;11.868;2023-05-29T02:42:58;38.01;35.04;40.62;;
45478;Laerm;31227;47.986;11.868;2023-05-29T02:45:23;37.97;35.36;40.33;;
45478;Laerm;31227;47.986;11.868;2023-05-29T02:47:48;37.98;35.04;40.43;;
45478;Laerm;31227;47.986;11.868;2023-05-29T02:50:13;37.97;34.69;40.43;;
45478;Laerm;31227;47.986;11.868;2023-05-29T02:52:39;37.97;35.31;40.33;;
45478;Laerm;31227;47.986;11.868;2023-05-29T02:55:05;37.96;34.69;40.43;;
45478;Laerm;31227;47.986;11.868;2023-05-29T02:57:30;38.01;34.69;40.33;;
45478;Laerm;31227;47.986;11.868;2023-05-29T02:59:56;37.97;34.31;40.62;;
45478;Laerm;31227;47.986;11.868;2023-05-29T03:02:21;37.96;34.69;40.33;;
45478;Laerm;31227;47.986;11.868;2023-05-29T03:04:46;37.95;34.69;40.53;;
45478;Laerm;31227;47.986;11.868;2023-05-29T03:07:11;37.96;34.69;40.45;;
45478;Laerm;31227;47.986;11.868;2023-05-29T03:09:37;37.96;34.69;41.06;;
45478;Laerm;31227;47.986;11.868;2023-05-29T03:12:03;38.01;35.04;42.71;;
45478;Laerm;31227;47.986;11.868;2023-05-29T03:14:28;38.07;34.31;41.30;;
45478;Laerm;31227;47.986;11.868;2023-05-29T03:16:53;37.99;34.69;40.71;;
45478;Laerm;31227;47.986;11.868;2023-05-29T03:19:19;37.96;34.31;40.23;;
45478;Laerm;31227;47.986;11.868;2023-05-29T03:21:44;37.97;33.90;40.36;;
45478;Laerm;31227;47.986;11.868;2023-05-29T03:24:10;37.90;34.69;40.23;;
45478;Laerm;31227;47.986;11.868;2023-05-29T03:26:35;37.91;34.69;40.23;;
45478;Laerm;31227;47.986;11.868;2023-05-29T03:29:01;37.92;33.90;40.43;;
45478;Laerm;31227;47.986;11.868;2023-05-29T03:31:27;37.92;34.69;40.62;;
45478;Laerm;31227;47.986;11.868;2023-05-29T03:33:52;37.96;35.04;40.43;;
45478;Laerm;31227;47.986;11.868;2023-05-29T03:36:17;37.93;35.04;40.43;;
45478;Laerm;31227;47.986;11.868;2023-05-29T03:38:43;37.92;34.69;40.33;;
45478;Laerm;31227;47.986;11.868;2023-05-29T03:41:08;37.92;34.69;40.33;;
45478;Laerm;31227;47.986;11.868;2023-05-29T03:43:33;37.95;34.69;40.53;;
45478;Laerm;31227;47.986;11.868;2023-05-29T03:45:58;37.93;35.01;40.23;;
45478;Laerm;31227;47.986;11.868;2023-05-29T03:48:24;37.91;34.31;40.33;;
45478;Laerm;31227;47.986;11.868;2023-05-29T03:50:49;38.08;35.04;43.29;;
45478;Laerm;31227;47.986;11.868;2023-05-29T03:53:14;37.91;35.01;40.33;;
45478;Laerm;31227;47.986;11.868;2023-05-29T03:55:40;37.95;34.69;40.62;;
45478;Laerm;31227;47.986;11.868;2023-05-29T03:58:05;37.92;35.04;40.71;;
45478;Laerm;31227;47.986;11.868;2023-05-29T04:00:30;37.93;34.69;40.13;;
45478;Laerm;31227;47.986;11.868;2023-05-29T04:02:56;37.89;34.31;40.62;;
45478;Laerm;31227;47.986;11.868;2023-05-29T04:05:21;37.91;35.01;40.43;;
45478;Laerm;31227;47.986;11.868;2023-05-29T04:07:46;37.91;34.69;40.62;;
45478;Laerm;31227;47.986;11.868;2023-05-29T04:10:12;37.92;34.69;40.33;;
45478;Laerm;31227;47.986;11.868;2023-05-29T04:12:37;37.92;34.31;40.23;;
45478;Laerm;31227;47.986;11.868;2023-05-29T04:15:02;37.92;34.31;40.89;;
45478;Laerm;31227;47.986;11.868;2023-05-29T04:17:28;37.97;34.69;40.89;;
45478;Laerm;31227;47.986;11.868;2023-05-29T04:19:53;37.97;34.34;40.33;;
45478;Laerm;31227;47.986;11.868;2023-05-29T04:22:18;37.97;34.69;40.54;;
45478;Laerm;31227;47.986;11.868;2023-05-29T04:24:44;37.94;34.69;40.53;;
45478;Laerm;31227;47.986;11.868;2023-05-29T04:27:09;37.95;34.31;40.33;;
45478;Laerm;31227;47.986;11.868;2023-05-29T04:29:38;37.98;34.31;40.71;;
45478;Laerm;31227;47.986;11.868;2023-05-29T04:32:05;38.03;35.01;40.53;;
45478;Laerm;31227;47.986;11.868;2023-05-29T04:34:31;37.92;34.69;40.33;;
45478;Laerm;31227;47.986;11.868;2023-05-29T04:36:57;37.91;33.44;40.33;;
45478;Laerm;31227;47.986;11.868;2023-05-29T04:39:23;37.99;34.69;41.14;;
45478;Laerm;31227;47.986;11.868;2023-05-29T04:41:48;37.94;34.69;40.43;;
45478;Laerm;31227;47.986;11.868;2023-05-29T04:44:14;37.93;33.90;40.43;;
45478;Laerm;31227;47.986;11.868;2023-05-29T04:46:42;37.96;34.69;40.33;;
45478;Laerm;31227;47.986;11.868;2023-05-29T04:49:09;37.95;34.69;40.43;;
45478;Laerm;31227;47.986;11.868;2023-05-29T04:51:41;37.95;34.69;40.53;;
45478;Laerm;31227;47.986;11.868;2023-05-29T04:57:21;38.03;33.90;41.89;;
45478;Laerm;31227;47.986;11.868;2023-05-29T04:59:52;38.03;33.90;40.53;;
45478;Laerm;31227;47.986;11.868;2023-05-29T05:05:16;38.02;34.31;40.33;;
45478;Laerm;31227;47.986;11.868;2023-05-29T05:07:41;38.01;34.69;40.23;;
45478;Laerm;31227;47.986;11.868;2023-05-29T05:10:06;38.03;35.01;40.89;;
45478;Laerm;31227;47.986;11.868;2023-05-29T05:12:32;38.02;34.69;40.71;;
45478;Laerm;31227;47.986;11.868;2023-05-29T05:14:57;38.04;34.69;40.33;;
45478;Laerm;31227;47.986;11.868;2023-05-29T05:17:22;38.11;35.04;41.68;;
45478;Laerm;31227;47.986;11.868;2023-05-29T05:19:48;38.08;34.31;40.33;;
45478;Laerm;31227;47.986;11.868;2023-05-29T05:22:18;38.09;33.90;43.90;;
45478;Laerm;31227;47.986;11.868;2023-05-29T05:24:43;38.12;34.69;40.71;;
45478;Laerm;31227;47.986;11.868;2023-05-29T05:27:08;38.08;34.31;40.62;;
45478;Laerm;31227;47.986;11.868;2023-05-29T05:29:34;38.08;34.69;40.33;;
45478;Laerm;31227;47.986;11.868;2023-05-29T05:31:59;38.07;35.04;40.71;;
45478;Laerm;31227;47.986;11.868;2023-05-29T05:34:24;38.13;35.04;42.22;;
45478;Laerm;31227;47.986;11.868;2023-05-29T05:36:49;38.08;35.04;41.14;;
45478;Laerm;31227;47.986;11.868;2023-05-29T05:39:15;38.13;34.31;40.53;;
45478;Laerm;31227;47.986;11.868;2023-05-29T05:41:40;38.14;34.31;42.76;;
45478;Laerm;31227;47.986;11.868;2023-05-29T05:44:05;38.28;35.04;42.65;;
45478;Laerm;31227;47.986;11.868;2023-05-29T05:46:30;38.47;35.04;43.77;;
45478;Laerm;31227;47.986;11.868;2023-05-29T05:48:56;38.20;34.69;40.62;;
45478;Laerm;31227;47.986;11.868;2023-05-29T05:51:22;38.13;34.69;40.71;;
45478;Laerm;31227;47.986;11.868;2023-05-29T05:53:47;38.21;35.36;42.29;;
45478;Laerm;31227;47.986;11.868;2023-05-29T05:56:13;38.15;35.04;40.43;;
45478;Laerm;31227;47.986;11.868;2023-05-29T05:58:38;38.20;35.04;42.93;;
45478;Laerm;31227;47.986;11.868;2023-05-29T06:01:03;38.26;34.69;41.30;;
45478;Laerm;31227;47.986;11.868;2023-05-29T06:03:28;38.16;34.69;40.71;;
45478;Laerm;31227;47.986;11.868;2023-05-29T06:05:54;38.20;34.69;40.71;;
45478;Laerm;31227;47.986;11.868;2023-05-29T06:08:20;38.24;35.01;40.89;;
45478;Laerm;31227;47.986;11.868;2023-05-29T06:10:45;38.21;35.04;41.06;;
45478;Laerm;31227;47.986;11.868;2023-05-29T06:13:11;38.19;35.04;40.89;;
45478;Laerm;31227;47.986;11.868;2023-05-29T06:15:36;38.19;34.69;40.53;;
45478;Laerm;31227;47.986;11.868;2023-05-29T06:18:02;38.22;34.69;40.62;;
45478;Laerm;31227;47.986;11.868;2023-05-29T06:20:27;38.23;35.36;40.62;;
45478;Laerm;31227;47.986;11.868;2023-05-29T06:22:53;38.34;35.04;42.71;;
45478;Laerm;31227;47.986;11.868;2023-05-29T06:25:19;38.27;34.31;41.22;;
45478;Laerm;31227;47.986;11.868;2023-05-29T06:27:44;38.31;35.04;42.71;;
45478;Laerm;31227;47.986;11.868;2023-05-29T06:30:11;38.36;34.31;43.09;;
45478;Laerm;31227;47.986;11.868;2023-05-29T06:32:37;38.23;34.69;40.63;;
45478;Laerm;31227;47.986;11.868;2023-05-29T06:35:02;38.24;34.69;40.80;;
45478;Laerm;31227;47.986;11.868;2023-05-29T06:37:28;38.20;34.31;41.53;;
45478;Laerm;31227;47.986;11.868;2023-05-29T06:39:54;38.28;33.90;41.53;;
45478;Laerm;31227;47.986;11.868;2023-05-29T06:42:19;38.41;34.69;41.82;;
45478;Laerm;31227;47.986;11.868;2023-05-29T06:44:44;38.26;34.69;42.16;;
45478;Laerm;31227;47.986;11.868;2023-05-29T06:47:09;38.11;35.04;40.80;;
45478;Laerm;31227;47.986;11.868;2023-05-29T06:49:35;38.42;34.69;43.54;;
45478;Laerm;31227;47.986;11.868;2023-05-29T06:52:00;38.13;33.90;42.88;;
45478;Laerm;31227;47.986;11.868;2023-05-29T06:54:25;38.45;34.31;44.27;;
45478;Laerm;31227;47.986;11.868;2023-05-29T06:56:51;38.07;34.31;40.63;;
45478;Laerm;31227;47.986;11.868;2023-05-29T06:59:16;38.06;35.04;40.43;;
45478;Laerm;31227;47.986;11.868;2023-05-29T07:01:41;38.10;34.31;41.14;;
45478;Laerm;31227;47.986;11.868;2023-05-29T07:04:07;38.16;34.31;41.61;;
45478;Laerm;31227;47.986;11.868;2023-05-29T07:06:32;38.13;34.69;41.38;;
45478;Laerm;31227;47.986;11.868;2023-05-29T07:08:58;38.14;34.31;41.22;;
45478;Laerm;31227;47.986;11.868;2023-05-29T07:11:24;38.55;34.69;43.34;;
45478;Laerm;31227;47.986;11.868;2023-05-29T07:13:50;38.40;34.31;43.68;;
45478;Laerm;31227;47.986;11.868;2023-05-29T07:16:15;38.16;34.31;42.03;;
45478;Laerm;31227;47.986;11.868;2023-05-29T07:18:41;38.16;34.69;41.61;;
45478;Laerm;31227;47.986;11.868;2023-05-29T07:21:06;38.31;34.69;43.04;;
45478;Laerm;31227;47.986;11.868;2023-05-29T07:23:32;38.01;33.90;40.89;;
45478;Laerm;31227;47.986;11.868;2023-05-29T07:25:57;38.24;34.31;43.54;;
45478;Laerm;31227;47.986;11.868;2023-05-29T07:28:22;38.40;34.31;43.58;;
45478;Laerm;31227;47.986;11.868;2023-05-29T07:30:47;38.43;34.31;44.76;;
45478;Laerm;31227;47.986;11.868;2023-05-29T07:33:13;38.30;34.69;42.35;;
45478;Laerm;31227;47.986;11.868;2023-05-29T07:35:38;38.16;35.04;41.22;;
45478;Laerm;31227;47.986;11.868;2023-05-29T07:38:03;38.07;35.04;40.89;;
45478;Laerm;31227;47.986;11.868;2023-05-29T07:40:28;38.76;35.04;43.24;;
45478;Laerm;31227;47.986;11.868;2023-05-29T07:42:53;38.56;34.69;42.98;;
45478;Laerm;31227;47.986;11.868;2023-05-29T07:45:19;38.05;33.90;40.62;;
45478;Laerm;31227;47.986;11.868;2023-05-29T07:47:44;38.52;34.69;42.16;;
45478;Laerm;31227;47.986;11.868;2023-05-29T07:50:10;38.69;34.69;43.86;;
45478;Laerm;31227;47.986;11.868;2023-05-29T07:52:35;38.03;34.69;40.71;;
45478;Laerm;31227;47.986;11.868;2023-05-29T07:55:01;38.17;33.90;40.89;;
45478;Laerm;31227;47.986;11.868;2023-05-29T07:57:27;38.57;35.04;43.49;;
45478;Laerm;31227;47.986;11.868;2023-05-29T07:59:52;38.33;35.04;42.47;;
45478;Laerm;31227;47.986;11.868;2023-05-29T08:02:17;38.18;33.90;42.09;;
45478;Laerm;31227;47.986;11.868;2023-05-29T08:04:42;38.21;33.90;42.42;;
45478;Laerm;31227;47.986;11.868;2023-05-29T08:07:08;38.31;33.90;43.29;;
45478;Laerm;31227;47.986;11.868;2023-05-29T08:09:34;38.19;34.69;41.89;;
45478;Laerm;31227;47.986;11.868;2023-05-29T08:12:00;38.75;34.31;43.81;;
45478;Laerm;31227;47.986;11.868;2023-05-29T08:14:26;38.44;34.69;44.07;;
45478;Laerm;31227;47.986;11.868;2023-05-29T08:16:51;38.31;34.69;41.68;;
45478;Laerm;31227;47.986;11.868;2023-05-29T08:19:16;38.44;35.04;43.49;;
45478;Laerm;31227;47.986;11.868;2023-05-29T08:21:42;38.23;34.69;40.80;;
45478;Laerm;31227;47.986;11.868;2023-05-29T08:24:07;38.76;35.04;44.43;;
45478;Laerm;31227;47.986;11.868;2023-05-29T08:26:34;39.04;34.69;47.36;;
45478;Laerm;31227;47.986;11.868;2023-05-29T08:28:59;38.67;35.36;45.01;;
45478;Laerm;31227;47.986;11.868;2023-05-29T08:31:25;38.42;34.69;42.74;;
45478;Laerm;31227;47.986;11.868;2023-05-29T08:33:53;38.64;35.36;42.59;;
45478;Laerm;31227;47.986;11.868;2023-05-29T08:36:19;38.22;35.36;40.71;;
45478;Laerm;31227;47.986;11.868;2023-05-29T08:38:47;38.74;35.36;44.07;;
45478;Laerm;31227;47.986;11.868;2023-05-29T08:41:15;38.53;35.04;41.82;;
45478;Laerm;31227;47.986;11.868;2023-05-29T08:43:42;38.73;35.36;43.49;;
45478;Laerm;31227;47.986;11.868;2023-05-29T08:46:08;38.94;35.36;43.63;;
45478;Laerm;31227;47.986;11.868;2023-05-29T08:48:34;38.30;35.04;40.89;;
45478;Laerm;31227;47.986;11.868;2023-05-29T08:51:02;38.91;35.04;44.07;;
45478;Laerm;31227;47.986;11.868;2023-05-29T08:53:27;38.46;34.69;41.38;;
45478;Laerm;31227;47.986;11.868;2023-05-29T08:55:53;38.63;35.36;42.16;;
45478;Laerm;31227;47.986;11.868;2023-05-29T08:58:18;38.64;35.36;42.41;;
45478;Laerm;31227;47.986;11.868;2023-05-29T09:00:46;38.79;35.36;42.82;;
45478;Laerm;31227;47.986;11.868;2023-05-29T09:03:11;38.58;35.04;43.44;;
45478;Laerm;31227;47.986;11.868;2023-05-29T09:05:38;38.60;35.66;42.53;;
45478;Laerm;31227;47.986;11.868;2023-05-29T09:08:05;38.51;34.69;41.96;;
45478;Laerm;31227;47.986;11.868;2023-05-29T09:10:30;38.49;35.36;41.89;;
45478;Laerm;31227;47.986;11.868;2023-05-29T09:12:57;38.73;35.04;42.16;;
45478;Laerm;31227;47.986;11.868;2023-05-29T09:15:22;38.87;34.69;42.47;;
45478;Laerm;31227;47.986;11.868;2023-05-29T09:17:57;38.93;35.66;42.98;;
45478;Laerm;31227;47.986;11.868;2023-05-29T09:20:23;38.66;35.36;43.68;;
45478;Laerm;31227;47.986;11.868;2023-05-29T09:23:02;39.00;35.66;44.23;;
45478;Laerm;31227;47.986;11.868;2023-05-29T09:25:29;38.57;35.66;41.82;;
45478;Laerm;31227;47.986;11.868;2023-05-29T09:27:58;38.93;35.04;44.31;;
45478;Laerm;31227;47.986;11.868;2023-05-29T09:33:10;38.66;35.36;43.34;;
45478;Laerm;31227;47.986;11.868;2023-05-29T09:35:37;39.25;35.04;44.47;;
45478;Laerm;31227;47.986;11.868;2023-05-29T09:38:02;38.56;35.04;41.61;;
45478;Laerm;31227;47.986;11.868;2023-05-29T09:40:32;38.84;35.04;43.44;;
45478;Laerm;31227;47.986;11.868;2023-05-29T09:43:10;38.75;35.04;42.09;;
45478;Laerm;31227;47.986;11.868;2023-05-29T09:45:37;38.94;35.66;43.04;;
45478;Laerm;31227;47.986;11.868;2023-05-29T09:48:03;38.57;35.36;40.98;;
45478;Laerm;31227;47.986;11.868;2023-05-29T09:50:28;38.86;35.36;42.59;;
45478;Laerm;31227;47.986;11.868;2023-05-29T09:52:56;39.13;35.36;43.68;;
45478;Laerm;31227;47.986;11.868;2023-05-29T09:55:22;39.21;35.31;44.23;;
45478;Laerm;31227;47.986;11.868;2023-05-29T09:57:48;39.05;35.66;43.44;;
45478;Laerm;31227;47.986;11.868;2023-05-29T10:00:15;39.09;35.36;43.24;;
45478;Laerm;31227;47.986;11.868;2023-05-29T10:02:41;39.10;36.20;42.35;;
45478;Laerm;31227;47.986;11.868;2023-05-29T10:05:06;39.15;35.36;43.44;;
45478;Laerm;31227;47.986;11.868;2023-05-29T10:07:36;39.07;35.94;44.03;;
45478;Laerm;31227;47.986;11.868;2023-05-29T10:10:05;39.15;35.86;45.27;;
45478;Laerm;31227;47.986;11.868;2023-05-29T10:12:32;39.38;35.86;44.51;;
45478;Laerm;31227;47.986;11.868;2023-05-29T10:14:59;39.47;35.94;48.07;;
45478;Laerm;31227;47.986;11.868;2023-05-29T10:17:28;38.88;35.36;41.38;;
45478;Laerm;31227;47.986;11.868;2023-05-29T10:19:56;39.13;35.94;43.19;;
45478;Laerm;31227;47.986;11.868;2023-05-29T10:22:23;39.52;36.20;43.58;;
45478;Laerm;31227;47.986;11.868;2023-05-29T10:24:50;39.07;35.94;45.11;;
45478;Laerm;31227;47.986;11.868;2023-05-29T10:27:16;39.33;35.66;44.51;;
45478;Laerm;31227;47.986;11.868;2023-05-29T10:29:43;38.98;35.66;43.44;;
45478;Laerm;31227;47.986;11.868;2023-05-29T10:32:21;39.66;35.94;44.69;;
45478;Laerm;31227;47.986;11.868;2023-05-29T10:37:37;39.37;35.66;43.86;;
45478;Laerm;31227;47.986;11.868;2023-05-29T10:40:09;38.86;35.04;42.98;;
45478;Laerm;31227;47.986;11.868;2023-05-29T10:45:09;38.96;35.94;42.41;;
45478;Laerm;31227;47.986;11.868;2023-05-29T10:47:36;38.93;35.94;41.96;;
45478;Laerm;31227;47.986;11.868;2023-05-29T10:50:02;39.29;35.86;50.33;;
45478;Laerm;31227;47.986;11.868;2023-05-29T10:52:31;39.08;35.36;44.31;;
45478;Laerm;31227;47.986;11.868;2023-05-29T10:54:56;38.88;35.66;42.53;;
45478;Laerm;31227;47.986;11.868;2023-05-29T10:57:22;39.06;35.94;42.82;;
45478;Laerm;31227;47.986;11.868;2023-05-29T10:59:47;39.37;35.66;44.20;;
45478;Laerm;31227;47.986;11.868;2023-05-29T11:02:19;39.13;35.94;43.81;;
45478;Laerm;31227;47.986;11.868;2023-05-29T11:05:03;39.75;35.94;46.13;;
45478;Laerm;31227;47.986;11.868;2023-05-29T11:07:32;38.99;35.66;45.01;;
45478;Laerm;31227;47.986;11.868;2023-05-29T11:10:10;38.78;35.36;41.22;;
45478;Laerm;31227;47.986;11.868;2023-05-29T11:12:36;39.38;35.66;44.62;;
45478;Laerm;31227;47.986;11.868;2023-05-29T11:15:20;39.20;35.36;43.81;;
45478;Laerm;31227;47.986;11.868;2023-05-29T11:17:45;38.91;35.04;42.76;;
45478;Laerm;31227;47.986;11.868;2023-05-29T11:25:23;39.35;35.66;44.94;;
45478;Laerm;31227;47.986;11.868;2023-05-29T11:27:48;39.48;35.04;46.71;;
45478;Laerm;31227;47.986;11.868;2023-05-29T11:30:14;39.40;35.66;43.49;;
45478;Laerm;31227;47.986;11.868;2023-05-29T11:32:42;39.35;35.66;43.77;;
45478;Laerm;31227;47.986;11.868;2023-05-29T11:35:10;39.43;35.66;46.76;;
45478;Laerm;31227;47.986;11.868;2023-05-29T11:37:35;39.57;36.20;44.19;;
45478;Laerm;31227;47.986;11.868;2023-05-29T11:40:04;39.15;35.66;43.64;;
45478;Laerm;31227;47.986;11.868;2023-05-29T11:42:34;39.34;35.36;43.34;;
45478;Laerm;31227;47.986;11.868;2023-05-29T11:45:12;39.66;35.59;48.60;;
45478;Laerm;31227;47.986;11.868;2023-05-29T11:47:53;39.29;35.36;46.33;;
45478;Laerm;31227;47.986;11.868;2023-05-29T11:50:19;39.26;35.36;43.24;;
45478;Laerm;31227;47.986;11.868;2023-05-29T11:52:45;39.28;35.36;47.72;;
45478;Laerm;31227;47.986;11.868;2023-05-29T11:55:11;39.04;35.94;42.65;;
45478;Laerm;31227;47.986;11.868;2023-05-29T11:57:36;39.05;35.66;45.91;;
45478;Laerm;31227;47.986;11.868;2023-05-29T12:00:02;39.00;35.94;43.19;;
45478;Laerm;31227;47.986;11.868;2023-05-29T12:02:35;39.01;35.66;43.24;;
45478;Laerm;31227;47.986;11.868;2023-05-29T12:05:03;38.67;35.04;41.53;;
45478;Laerm;31227;47.986;11.868;2023-05-29T12:07:29;39.09;35.36;44.69;;
45478;Laerm;31227;47.986;11.868;2023-05-29T12:09:55;39.46;35.94;46.08;;
45478;Laerm;31227;47.986;11.868;2023-05-29T12:12:23;39.11;35.04;43.29;;
45478;Laerm;31227;47.986;11.868;2023-05-29T12:14:51;39.46;36.20;43.99;;
45478;Laerm;31227;47.986;11.868;2023-05-29T12:17:17;39.34;35.66;43.72;;
45478;Laerm;31227;47.986;11.868;2023-05-29T12:19:43;39.26;35.36;43.44;;
45478;Laerm;31227;47.986;11.868;2023-05-29T12:22:08;39.38;35.94;44.98;;
45478;Laerm;31227;47.986;11.868;2023-05-29T12:24:34;39.38;35.66;44.51;;
45478;Laerm;31227;47.986;11.868;2023-05-29T12:26:59;39.22;35.36;43.86;;
45478;Laerm;31227;47.986;11.868;2023-05-29T12:29:29;39.39;35.94;43.58;;
45478;Laerm;31227;47.986;11.868;2023-05-29T12:31:58;38.88;35.36;42.16;;
45478;Laerm;31227;47.986;11.868;2023-05-29T12:34:24;39.45;35.66;44.83;;
45478;Laerm;31227;47.986;11.868;2023-05-29T12:36:49;39.26;35.36;43.72;;
45478;Laerm;31227;47.986;11.868;2023-05-29T12:39:14;38.97;34.69;42.22;;
45478;Laerm;31227;47.986;11.868;2023-05-29T12:41:39;39.15;35.66;44.15;;
45478;Laerm;31227;47.986;11.868;2023-05-29T12:44:05;38.92;35.04;42.22;;
45478;Laerm;31227;47.986;11.868;2023-05-29T12:46:38;38.65;35.36;41.41;;
45478;Laerm;31227;47.986;11.868;2023-05-29T12:51:40;39.33;35.94;43.99;;
45478;Laerm;31227;47.986;11.868;2023-05-29T12:54:05;39.65;35.36;43.63;;
45478;Laerm;31227;47.986;11.868;2023-05-29T12:56:31;39.57;35.36;44.51;;
45478;Laerm;31227;47.986;11.868;2023-05-29T12:58:56;39.15;35.36;44.15;;
45478;Laerm;31227;47.986;11.868;2023-05-29T13:01:21;38.90;35.36;44.23;;
45478;Laerm;31227;47.986;11.868;2023-05-29T13:03:47;39.29;35.66;43.86;;
45478;Laerm;31227;47.986;11.868;2023-05-29T13:06:12;39.29;35.36;45.42;;
45478;Laerm;31227;47.986;11.868;2023-05-29T13:08:37;38.93;35.36;42.71;;
45478;Laerm;31227;47.986;11.868;2023-05-29T13:11:03;39.10;35.04;43.39;;
45478;Laerm;31227;47.986;11.868;2023-05-29T13:13:28;38.82;35.59;42.19;;
45478;Laerm;31227;47.986;11.868;2023-05-29T13:15:53;39.44;35.04;45.45;;
45478;Laerm;31227;47.986;11.868;2023-05-29T13:18:19;39.09;35.36;48.12;;
45478;Laerm;31227;47.986;11.868;2023-05-29T13:20:47;39.65;35.94;50.35;;
45478;Laerm;31227;47.986;11.868;2023-05-29T13:23:13;38.80;35.66;42.16;;
45478;Laerm;31227;47.986;11.868;2023-05-29T13:25:41;39.03;35.66;43.49;;
45478;Laerm;31227;47.986;11.868;2023-05-29T13:28:06;39.23;35.36;57.66;;
45478;Laerm;31227;47.986;11.868;2023-05-29T15:25:35;39.10;35.04;44.39;;
45478;Laerm;31227;47.986;11.868;2023-05-29T15:28:00;38.75;35.66;42.93;;
45478;Laerm;31227;47.986;11.868;2023-05-29T15:30:26;38.90;35.66;44.27;;
45478;Laerm;31227;47.986;11.868;2023-05-29T15:32:51;39.05;35.36;43.89;;
45478;Laerm;31227;47.986;11.868;2023-05-29T15:35:16;38.90;35.66;42.47;;
45478;Laerm;31227;47.986;11.868;2023-05-29T15:37:44;39.00;35.36;44.47;;
45478;Laerm;31227;47.986;11.868;2023-05-29T15:40:10;39.09;35.66;45.65;;
45478;Laerm;31227;47.986;11.868;2023-05-29T15:42:35;39.73;35.94;54.30;;
45478;Laerm;31227;47.986;11.868;2023-05-29T15:45:01;38.79;35.04;42.09;;
45478;Laerm;31227;47.986;11.868;2023-05-29T15:47:28;39.17;35.66;44.39;;
45478;Laerm;31227;47.986;11.868;2023-05-29T15:49:53;38.68;34.69;41.30;;
45478;Laerm;31227;47.986;11.868;2023-05-29T15:52:19;38.68;35.66;41.53;;
45478;Laerm;31227;47.986;11.868;2023-05-29T15:54:44;38.90;35.36;43.58;;
45478;Laerm;31227;47.986;11.868;2023-05-29T15:57:09;38.68;35.36;41.68;;
45478;Laerm;31227;47.986;11.868;2023-05-29T15:59:34;39.41;35.36;47.72;;
45478;Laerm;31227;47.986;11.868;2023-05-29T16:02:01;39.02;35.04;42.82;;
45478;Laerm;31227;47.986;11.868;2023-05-29T16:04:27;38.81;35.36;41.96;;
45478;Laerm;31227;47.986;11.868;2023-05-29T16:06:53;39.21;35.66;45.07;;
45478;Laerm;31227;47.986;11.868;2023-05-29T16:09:18;38.81;35.36;43.29;;
45478;Laerm;31227;47.986;11.868;2023-05-29T16:11:44;39.26;35.36;44.80;;
45478;Laerm;31227;47.986;11.868;2023-05-29T16:14:10;38.55;35.36;41.96;;
45478;Laerm;31227;47.986;11.868;2023-05-29T16:16:35;39.22;35.66;43.49;;
45478;Laerm;31227;47.986;11.868;2023-05-29T16:19:01;38.98;35.94;42.53;;
45478;Laerm;31227;47.986;11.868;2023-05-29T16:21:27;38.93;35.36;42.98;;
45478;Laerm;31227;47.986;11.868;2023-05-29T16:23:52;38.86;35.66;43.34;;
45478;Laerm;31227;47.986;11.868;2023-05-29T16:26:26;38.68;35.04;41.30;;
45478;Laerm;31227;47.986;11.868;2023-05-29T16:28:59;38.82;35.66;43.81;;
45478;Laerm;31227;47.986;11.868;2023-05-29T16:46:55;38.63;34.69;43.34;;
45478;Laerm;31227;47.986;11.868;2023-05-29T16:49:20;38.88;35.66;42.47;;